Stations météo

réclame
Mon MeteoGroup
Serralta di S. Vito, Italie (16364): Température de l'air & dewpoint: 17.10.2018 11:00:00 - 23.10.2018 11:00:00 (CEST)Serralta di S. Vito, Italie (16364): Vitesse du vent: 17.10.2018 11:00:00 - 23.10.2018 11:00:00 (CEST)Serralta di S. Vito, Italie (16364): Direction du vent: 17.10.2018 11:00:00 - 23.10.2018 11:00:00 (CEST)Serralta di S. Vito, Italie (16364): Quantités de précipitations: 17.10.2018 11:00:00 - 23.10.2018 11:00:00 (CEST)
Date & Time tt [°C] td [°C] ff [km/h] ff [knt] dd rr [mm]
23.10.2018 11:00:00 12,1 9,4 31 17 ENE -
23.10.2018 10:00:00 8,9 6,3 26 14 E -
23.10.2018 09:00:00 9,1 6,7 21 11 ENE -
23.10.2018 08:00:00 9,1 7,0 22 12 E -
23.10.2018 07:00:00 9,4 7,5 29 16 E -
23.10.2018 06:00:00 9,9 7,6 29 16 ENE -
23.10.2018 05:00:00 9,6 7,0 31 17 ENE -
23.10.2018 04:00:00 9,6 7,0 29 16 ENE -
23.10.2018 03:00:00 9,3 7,0 28 15 ENE -
23.10.2018 02:00:00 8,8 6,9 21 11 ESE -
23.10.2018 01:00:00 8,4 6,2 18 10 E -
23.10.2018 00:00:00 8,5 6,6 15 8 ENE -
22.10.2018 23:00:00 9,1 7,2 11 6 NE -
22.10.2018 22:00:00 9,2 7,3 11 6 WSW -
22.10.2018 21:00:00 9,3 7,4 13 7 W -
22.10.2018 20:00:00 10,1 8,2 15 8 W -
22.10.2018 19:00:00 10,7 8,8 11 6 W -
22.10.2018 18:00:00 11,4 8,9 4 2 WSW -
22.10.2018 17:00:00 12,0 9,4 8 4 W -
22.10.2018 16:00:00 12,9 10,1 8 4 WSW -
22.10.2018 15:00:00 13,2 9,4 5 3 WSW -
22.10.2018 14:00:00 14,7 11,3 5 3 W -
22.10.2018 13:00:00 15,1 12,8 9 5 W -
22.10.2018 12:00:00 14,1 11,9 9 5 S -
22.10.2018 11:00:00 10,3 8,2 15 8 ESE -
22.10.2018 10:00:00 9,4 7,3 13 7 E -
22.10.2018 09:00:00 9,3 7,2 11 6 SW -
22.10.2018 08:00:00 10,3 8,2 8 4 E -
22.10.2018 07:00:00 10,2 8,1 18 10 E -
22.10.2018 06:00:00 10,5 8,4 22 12 ESE -
22.10.2018 05:00:00 10,6 8,5 22 12 ESE -
22.10.2018 04:00:00 10,6 8,5 21 11 SE -
22.10.2018 03:00:00 9,9 7,8 21 11 ESE -
22.10.2018 02:00:00 9,7 7,8 18 10 E -
22.10.2018 01:00:00 9,7 7,6 22 12 SE -
22.10.2018 00:00:00 9,5 7,6 24 13 SSE -
21.10.2018 23:00:00 10,1 8,2 15 8 E -
21.10.2018 22:00:00 10,4 8,5 15 8 ESE -
21.10.2018 21:00:00 10,7 8,8 13 7 SE -
21.10.2018 20:00:00 11,5 9,6 9 5 ESE 0,0
21.10.2018 19:00:00 12,8 10,7 4 2 E -
21.10.2018 18:00:00 13,0 11,0 5 3 SE -
21.10.2018 17:00:00 13,9 11,7 15 8 WNW -
21.10.2018 16:00:00 13,7 11,7 15 8 SW -
21.10.2018 15:00:00 14,5 12,2 8 4 WSW -
21.10.2018 14:00:00 14,5 12,2 11 6 WSW 0,0
21.10.2018 13:00:00 15,1 12,8 8 4 SW -
21.10.2018 12:00:00 13,9 11,7 8 4 W -
21.10.2018 11:00:00 13,6 11,5 9 5 W -
21.10.2018 10:00:00 13,1 11,0 9 5 WSW -
21.10.2018 09:00:00 12,6 10,5 13 7 WNW -
21.10.2018 08:00:00 12,3 10,2 15 8 WSW 0,0
21.10.2018 07:00:00 11,8 9,7 15 8 W -
21.10.2018 06:00:00 12,0 9,9 13 7 W -
21.10.2018 05:00:00 11,9 9,8 11 6 W -
21.10.2018 04:00:00 11,7 9,8 11 6 W -
21.10.2018 03:00:00 12,1 10,2 9 5 W -
21.10.2018 02:00:00 11,8 9,3 8 4 W 0,0
21.10.2018 01:00:00 11,5 8,5 5 3 SW -
21.10.2018 00:00:00 11,3 8,1 8 4 WSW -
20.10.2018 23:00:00 11,2 8,0 9 5 WSW -
20.10.2018 22:00:00 11,3 8,3 9 5 W -
20.10.2018 21:00:00 11,9 8,5 9 5 WSW -
20.10.2018 20:00:00 11,9 9,1 11 6 SW 0,0
20.10.2018 19:00:00 12,1 9,3 11 6 WSW -
20.10.2018 18:00:00 13,6 10,9 9 5 WSW -
20.10.2018 17:00:00 15,0 12,1 8 4 SW -
20.10.2018 16:00:00 15,6 11,9 9 5 WSW -
20.10.2018 15:00:00 17,2 13,0 9 5 SSW -
20.10.2018 14:00:00 19,0 14,2 9 5 S 0,0
20.10.2018 13:00:00 20,3 14,6 4 2 SSW -
20.10.2018 12:00:00 19,0 13,3 4 2 SE -
20.10.2018 11:00:00 17,5 12,6 5 3 WNW -
20.10.2018 10:00:00 16,3 12,2 5 3 N -
20.10.2018 09:00:00 13,9 10,3 4 2 SW -
20.10.2018 08:00:00 12,2 9,2 8 4 SE 0,0
20.10.2018 07:00:00 11,9 9,3 9 5 SE -
20.10.2018 06:00:00 11,8 9,3 9 5 ESE -
20.10.2018 05:00:00 11,9 9,4 9 5 ESE -
20.10.2018 04:00:00 12,0 9,5 13 7 ESE -
20.10.2018 03:00:00 11,7 8,9 13 7 ESE -
20.10.2018 02:00:00 11,8 8,8 15 8 ESE 0,0
20.10.2018 01:00:00 11,7 7,8 15 8 E -
20.10.2018 00:00:00 11,8 8,6 18 10 E -
19.10.2018 23:00:00 11,5 9,6 18 10 ESE -
19.10.2018 22:00:00 11,5 9,4 21 11 SE -
19.10.2018 21:00:00 11,5 9,4 22 12 SE -
19.10.2018 20:00:00 11,8 9,7 22 12 ESE -
19.10.2018 19:00:00 12,6 10,5 21 11 E -
19.10.2018 18:00:00 12,7 10,6 16 9 E -
19.10.2018 17:00:00 13,6 11,5 29 16 E -
19.10.2018 16:00:00 13,6 11,5 29 16 E -
19.10.2018 15:00:00 14,5 12,7 31 17 ESE -
19.10.2018 14:00:00 13,6 12,0 29 16 E 0,0
19.10.2018 13:00:00 13,7 11,6 34 18 E -
19.10.2018 12:00:00 13,1 11,0 42 23 ESE -
19.10.2018 11:00:00 13,0 10,9 41 22 E -
19.10.2018 10:00:00 12,8 10,7 39 21 E -
19.10.2018 09:00:00 12,6 10,5 41 22 E -
19.10.2018 08:00:00 12,8 10,7 41 22 ENE 0,0
19.10.2018 07:00:00 13,0 10,9 34 18 E -
19.10.2018 06:00:00 12,9 10,8 35 19 E -
19.10.2018 05:00:00 12,9 10,8 34 18 ESE -
19.10.2018 04:00:00 13,2 11,1 29 16 E -
19.10.2018 03:00:00 13,2 11,1 28 15 E -
19.10.2018 02:00:00 13,1 11,0 31 17 E 0,0
19.10.2018 01:00:00 13,3 11,2 22 12 E -
19.10.2018 00:00:00 13,3 11,2 22 12 E -
18.10.2018 23:00:00 13,3 11,2 24 13 E -
18.10.2018 22:00:00 13,5 11,4 24 13 E -
18.10.2018 21:00:00 13,2 11,1 26 14 SE -
18.10.2018 20:00:00 13,1 11,0 31 17 E 0,0
18.10.2018 19:00:00 13,0 10,9 29 16 E -
18.10.2018 18:00:00 12,9 10,8 26 14 SE -
18.10.2018 17:00:00 13,0 10,9 24 13 ESE -
18.10.2018 16:00:00 13,1 11,0 28 15 E -
18.10.2018 15:00:00 13,1 11,0 35 19 E -
18.10.2018 14:00:00 13,0 10,9 31 17 E 0,0
18.10.2018 13:00:00 12,9 10,8 31 17 E -
18.10.2018 12:00:00 13,3 11,2 34 18 S -
18.10.2018 11:00:00 13,0 10,9 29 16 E -
18.10.2018 10:00:00 12,6 10,5 31 17 ESE -
18.10.2018 09:00:00 12,7 10,6 37 20 E -
18.10.2018 08:00:00 12,8 10,7 34 18 E 0,0
18.10.2018 07:00:00 12,5 10,4 28 15 E -
18.10.2018 06:00:00 12,5 10,4 26 14 ENE -
18.10.2018 05:00:00 12,6 10,5 24 13 SE -
18.10.2018 04:00:00 12,6 10,5 29 16 ESE -
18.10.2018 03:00:00 13,0 10,9 28 15 E -
18.10.2018 02:00:00 13,3 11,2 29 16 E 0,0
18.10.2018 01:00:00 13,2 11,1 26 14 ESE -
18.10.2018 00:00:00 13,2 11,1 18 10 E -
17.10.2018 23:00:00 13,1 11,0 24 13 E -
17.10.2018 22:00:00 13,4 11,3 21 11 SE -
17.10.2018 21:00:00 13,4 11,3 21 11 SE -
17.10.2018 20:00:00 13,6 11,5 16 9 SE -
17.10.2018 19:00:00 13,9 11,7 21 11 N -
17.10.2018 18:00:00 14,1 12,5 15 8 ESE -
17.10.2018 17:00:00 14,8 13,1 13 7 SE -
17.10.2018 16:00:00 14,5 12,8 24 13 E -
17.10.2018 15:00:00 14,7 13,0 16 9 SE -
17.10.2018 14:00:00 15,8 14,1 15 8 SSE 0,0
17.10.2018 13:00:00 15,5 13,8 15 8 S -
17.10.2018 12:00:00 15,0 13,3 18 10 ESE -
17.10.2018 11:00:00 14,6 12,9 16 9 SE -

tt = Température de l'air
td = dewpoint
ff = Vitesse du vent
dd = Direction du vent
rr = Quantités de précipitations

stations d'obs. à proximité